createdAt,value
2018-05-02T00:01:06.531Z,63.62
2018-05-02T00:03:37.304Z,64.32
2018-05-02T00:06:08.111Z,64.44
2018-05-02T00:08:39.612Z,64.29
2018-05-02T00:11:10.435Z,63.67
2018-05-02T00:13:41.205Z,63.77
2018-05-02T00:16:12.019Z,63.42
2018-05-02T00:18:42.829Z,63.62
2018-05-02T00:21:13.615Z,63.95
2018-05-02T00:23:44.407Z,63.37
2018-05-02T00:26:15.199Z,63.25
2018-05-02T00:28:45.977Z,63.26
2018-05-02T00:31:16.779Z,63.15
2018-05-02T00:33:47.584Z,62.82
2018-05-02T00:36:18.396Z,62.55
2018-05-02T00:38:49.194Z,62.83
2018-05-02T00:41:19.999Z,62.72
2018-05-02T00:43:50.787Z,63.37
2018-05-02T00:46:21.580Z,63.23
2018-05-02T00:49:04.701Z,62.96
2018-05-02T00:51:35.483Z,63.19
2018-05-02T00:54:06.344Z,63.49
2018-05-02T00:56:37.082Z,63.54
2018-05-02T00:59:07.857Z,63.51
2018-05-02T01:01:38.643Z,62.99
2018-05-02T01:04:09.435Z,63.08
2018-05-02T01:06:40.215Z,62.49
2018-05-02T01:09:10.979Z,62.19
2018-05-02T01:11:41.768Z,62.51
2018-05-02T01:14:12.551Z,61.92
2018-05-02T01:16:43.340Z,62.06
2018-05-02T01:19:14.111Z,62.11
2018-05-02T01:21:44.899Z,62.24
2018-05-02T01:24:15.683Z,62.53
2018-05-02T01:26:46.475Z,62.12
2018-05-02T01:29:17.254Z,62.20
2018-05-02T01:31:48.056Z,62.70
2018-05-02T01:34:18.861Z,62.62
2018-05-02T01:36:49.655Z,62.34
2018-05-02T01:39:20.411Z,62.51
2018-05-02T01:41:51.195Z,62.66
2018-05-02T01:44:21.969Z,62.29
2018-05-02T01:46:52.752Z,62.21
2018-05-02T01:49:23.543Z,62.09
2018-05-02T01:51:54.322Z,62.44
2018-05-02T01:54:25.092Z,62.29
2018-05-02T01:56:55.856Z,62.51
2018-05-02T01:59:26.636Z,62.76
2018-05-02T02:01:57.435Z,62.52
2018-05-02T02:04:28.196Z,62.09
2018-05-02T02:06:58.986Z,62.64
2018-05-02T02:09:29.759Z,62.38
2018-05-02T02:12:00.564Z,62.50
2018-05-02T02:14:31.364Z,62.43
2018-05-02T02:17:02.148Z,62.24
2018-05-02T02:19:32.944Z,62.48
2018-05-02T02:22:03.757Z,62.63
2018-05-02T02:24:34.529Z,62.22
2018-05-02T02:27:05.322Z,62.12
2018-05-02T02:29:36.090Z,61.69
2018-05-02T02:32:06.916Z,61.34
2018-05-02T02:34:37.679Z,61.19
2018-05-02T02:37:08.471Z,61.07
2018-05-02T02:39:39.239Z,62.02
2018-05-02T02:42:10.729Z,61.97
2018-05-02T02:44:41.516Z,61.38
2018-05-02T02:47:12.302Z,61.96
2018-05-02T02:49:43.115Z,62.13
2018-05-02T02:52:14.565Z,62.43
2018-05-02T02:54:45.377Z,62.35
2018-05-02T02:57:16.166Z,62.66
2018-05-02T02:59:46.948Z,62.82
2018-05-02T03:02:17.719Z,62.74
2018-05-02T03:04:48.493Z,62.42
2018-05-02T03:07:19.289Z,62.23
2018-05-02T03:09:50.073Z,62.13
2018-05-02T03:12:20.843Z,62.04
2018-05-02T03:14:51.604Z,62.41
2018-05-02T03:17:22.415Z,62.29
2018-05-02T03:19:53.179Z,61.83
2018-05-02T03:22:23.950Z,60.83
2018-05-02T03:24:54.725Z,61.33
2018-05-02T03:27:25.517Z,61.25
2018-05-02T03:29:57.276Z,61.38
2018-05-02T03:32:28.067Z,61.53
2018-05-02T03:34:58.844Z,61.46
2018-05-02T03:37:29.628Z,61.53
2018-05-02T03:40:00.413Z,60.99
2018-05-02T03:42:31.196Z,60.93
2018-05-02T03:45:01.998Z,60.99
2018-05-02T03:47:32.847Z,61.23
2018-05-02T03:50:03.651Z,61.23
2018-05-02T03:52:34.445Z,60.62
2018-05-02T03:55:05.225Z,60.88
2018-05-02T03:57:36.032Z,60.82
2018-05-02T04:00:19.177Z,61.10
2018-05-02T04:03:02.430Z,60.70
2018-05-02T04:05:45.439Z,61.34
2018-05-02T04:08:16.231Z,61.02
2018-05-02T04:10:47.040Z,61.46
2018-05-02T04:13:17.847Z,60.80
2018-05-02T04:15:48.643Z,61.16
2018-05-02T04:18:19.563Z,60.57
2018-05-02T04:20:50.329Z,60.45
2018-05-02T04:23:21.138Z,60.77
2018-05-02T04:25:51.923Z,61.10
2018-05-02T04:28:23.258Z,61.01
2018-05-02T04:30:54.032Z,61.45
2018-05-02T04:33:24.808Z,61.32
2018-05-02T04:35:55.571Z,61.42
2018-05-02T04:38:26.363Z,61.63
2018-05-02T04:40:57.177Z,62.21
2018-05-02T04:43:27.991Z,63.38
2018-05-02T04:45:58.751Z,62.30
2018-05-02T04:48:29.536Z,61.93
2018-05-02T04:51:00.298Z,61.74
2018-05-02T04:53:32.080Z,61.89
2018-05-02T04:56:02.899Z,61.34
2018-05-02T04:58:33.663Z,60.32
2018-05-02T05:01:04.466Z,59.88
2018-05-02T05:03:35.268Z,59.27
2018-05-02T05:06:06.047Z,58.92
2018-05-02T05:08:36.823Z,58.72
2018-05-02T05:11:07.592Z,58.82
2018-05-02T05:13:38.374Z,58.26
2018-05-02T05:16:09.140Z,58.00
2018-05-02T05:18:39.926Z,59.24
2018-05-02T05:21:10.701Z,58.40
2018-05-02T05:23:41.484Z,57.62
2018-05-02T05:26:12.264Z,57.81
2018-05-02T05:28:43.051Z,57.70
2018-05-02T05:31:14.678Z,58.24
2018-05-02T05:33:45.471Z,57.28
2018-05-02T05:36:16.256Z,59.00
2018-05-02T05:38:47.072Z,58.92
2018-05-02T05:41:17.891Z,58.20
2018-05-02T05:43:48.692Z,58.31
2018-05-02T05:46:19.468Z,57.26
2018-05-02T05:48:50.250Z,56.95
2018-05-02T05:51:21.012Z,57.25
2018-05-02T05:53:51.810Z,57.33
2018-05-02T05:56:22.596Z,57.10
2018-05-02T05:58:53.375Z,57.06
2018-05-02T06:01:24.152Z,57.93
2018-05-02T06:03:54.960Z,57.83
2018-05-02T06:06:25.719Z,56.93
2018-05-02T06:08:56.532Z,58.32
2018-05-02T06:11:27.311Z,56.95
2018-05-02T06:13:58.100Z,56.96
2018-05-02T06:16:28.910Z,55.85
2018-05-02T06:18:59.736Z,55.42
2018-05-02T06:21:30.512Z,54.57
2018-05-02T06:24:01.312Z,54.26
2018-05-02T06:26:32.131Z,54.13
2018-05-02T06:29:02.929Z,51.61
2018-05-02T06:31:33.780Z,49.37
2018-05-02T06:34:04.537Z,51.33
2018-05-02T06:36:35.312Z,50.21
2018-05-02T06:39:06.141Z,50.79
2018-05-02T06:41:36.931Z,50.19
2018-05-02T06:44:07.744Z,50.23
2018-05-02T06:46:38.556Z,48.89
2018-05-02T06:49:09.387Z,49.92
2018-05-02T06:51:40.168Z,49.88
2018-05-02T06:54:10.981Z,51.11
2018-05-02T06:56:41.737Z,49.34
2018-05-02T06:59:12.531Z,49.31
2018-05-02T07:01:43.303Z,49.10
2018-05-02T07:04:14.122Z,50.64
2018-05-02T07:06:44.895Z,49.14
2018-05-02T07:09:15.666Z,49.54
2018-05-02T07:11:46.450Z,46.61
2018-05-02T07:14:17.228Z,48.08
2018-05-02T07:16:48.012Z,48.00
2018-05-02T07:19:18.796Z,46.96
2018-05-02T07:21:49.579Z,46.21
2018-05-02T07:24:20.363Z,46.78
2018-05-02T07:26:51.138Z,43.27
2018-05-02T07:29:21.933Z,42.80
2018-05-02T07:31:52.758Z,43.44
2018-05-02T07:34:23.607Z,38.03
2018-05-02T07:36:54.379Z,38.00
2018-05-02T07:39:25.231Z,38.86
2018-05-02T07:41:56.076Z,39.53
2018-05-02T07:44:26.883Z,38.94
2018-05-02T07:46:57.664Z,40.38
2018-05-02T07:49:28.465Z,37.62
2018-05-02T07:51:59.243Z,36.04
2018-05-02T07:54:30.072Z,35.46
2018-05-02T07:57:00.873Z,37.82
2018-05-02T07:59:31.671Z,36.75
2018-05-02T08:02:02.462Z,35.23
2018-05-02T08:04:33.253Z,36.08
2018-05-02T08:07:04.024Z,35.91
2018-05-02T08:09:34.833Z,35.02
2018-05-02T08:12:06.211Z,34.97
2018-05-02T08:14:37.016Z,31.63
2018-05-02T08:17:07.798Z,32.77
2018-05-02T08:19:39.212Z,33.04
2018-05-02T08:22:10.029Z,33.50
2018-05-02T08:24:40.824Z,32.32
2018-05-02T08:27:11.583Z,30.39
2018-05-02T08:29:42.792Z,30.23
2018-05-02T08:32:13.683Z,31.22
2018-05-02T08:34:44.485Z,31.96
2018-05-02T08:37:15.248Z,33.74
2018-05-02T08:39:46.072Z,33.60
2018-05-02T08:42:16.885Z,31.71
2018-05-02T08:44:47.907Z,32.74
2018-05-02T08:47:18.723Z,33.59
2018-05-02T08:49:49.611Z,32.92
2018-05-02T08:52:20.324Z,33.26
2018-05-02T08:54:58.061Z,33.92
2018-05-02T08:57:28.845Z,36.16
2018-05-02T08:59:59.624Z,35.90
2018-05-02T09:02:30.403Z,35.17
2018-05-02T09:05:01.220Z,33.63
2018-05-02T09:07:31.992Z,32.29
2018-05-02T09:10:04.459Z,34.04
2018-05-02T09:12:35.220Z,32.58
2018-05-02T09:15:05.983Z,34.19
2018-05-02T09:17:36.797Z,32.68
2018-05-02T09:20:07.600Z,32.31
2018-05-02T09:22:38.369Z,32.08
2018-05-02T09:25:09.187Z,30.49
2018-05-02T09:27:39.951Z,31.11
2018-05-02T09:30:10.730Z,32.33
2018-05-02T09:32:41.527Z,31.65
2018-05-02T09:35:12.311Z,32.31
2018-05-02T09:37:43.096Z,31.65
2018-05-02T09:40:13.893Z,32.14
2018-05-02T09:42:44.689Z,31.88
2018-05-02T09:45:15.484Z,34.08
2018-05-02T09:47:46.273Z,32.58
2018-05-02T09:50:17.071Z,32.50
2018-05-02T09:52:47.839Z,33.16
2018-05-02T09:55:18.625Z,32.63
2018-05-02T09:57:49.401Z,33.67
2018-05-02T10:00:20.227Z,34.74
2018-05-02T10:02:50.991Z,35.71
2018-05-02T10:05:21.779Z,33.39
2018-05-02T10:07:52.547Z,32.90
2018-05-02T10:10:23.412Z,35.58
2018-05-02T10:12:54.172Z,36.46
2018-05-02T10:15:24.959Z,37.57
2018-05-02T10:17:55.736Z,37.50
2018-05-02T10:20:26.539Z,38.52
2018-05-02T10:22:57.364Z,37.11
2018-05-02T10:25:28.167Z,35.60
2018-05-02T10:27:58.963Z,34.60
2018-05-02T10:30:29.743Z,33.70
2018-05-02T10:33:01.518Z,32.65
2018-05-02T10:35:32.306Z,33.70
2018-05-02T10:38:03.097Z,35.21
2018-05-02T10:40:33.938Z,35.91
2018-05-02T10:43:04.811Z,35.73
2018-05-02T10:45:35.548Z,36.11
2018-05-02T10:48:06.303Z,33.93
2018-05-02T10:50:37.108Z,32.25
2018-05-02T10:53:09.238Z,30.61
2018-05-02T10:55:40.059Z,30.63
2018-05-02T10:58:10.840Z,32.78
2018-05-02T11:00:41.613Z,32.29
2018-05-02T11:03:12.364Z,32.42
2018-05-02T11:05:43.189Z,33.05
2018-05-02T11:08:13.955Z,33.91
2018-05-02T11:10:44.795Z,34.18
2018-05-02T11:13:15.579Z,32.73
2018-05-02T11:15:46.392Z,30.89
2018-05-02T11:18:17.180Z,32.03
2018-05-02T11:20:47.992Z,30.22
2018-05-02T11:23:18.756Z,31.26
2018-05-02T11:25:49.536Z,33.54
2018-05-02T11:28:20.383Z,32.43
2018-05-02T11:30:51.116Z,33.50
2018-05-02T11:33:21.895Z,33.69
2018-05-02T11:35:52.688Z,32.87
2018-05-02T11:38:23.493Z,32.26
2018-05-02T11:40:54.278Z,32.13
2018-05-02T11:43:25.067Z,31.70
2018-05-02T11:45:55.877Z,32.65
2018-05-02T11:48:26.654Z,31.96
2018-05-02T11:50:57.455Z,31.82
2018-05-02T11:56:14.156Z,34.17
2018-05-02T11:58:44.938Z,32.63
2018-05-02T12:01:15.764Z,32.78
2018-05-02T12:03:46.552Z,31.56
2018-05-02T12:06:17.344Z,31.37
2018-05-02T12:08:48.176Z,31.62
2018-05-02T12:11:18.966Z,31.89
2018-05-02T12:13:49.740Z,32.90
2018-05-02T12:16:20.557Z,33.47
2018-05-02T12:18:51.357Z,33.57
2018-05-02T12:21:22.175Z,35.28
2018-05-02T12:23:52.959Z,33.30
2018-05-02T12:26:23.746Z,31.87
2018-05-02T12:28:54.512Z,32.68
2018-05-02T12:31:25.319Z,30.71
2018-05-02T12:33:56.091Z,31.34
2018-05-02T12:36:26.898Z,32.41
2018-05-02T12:38:57.695Z,32.12
2018-05-02T12:41:28.523Z,31.84
2018-05-02T12:43:59.314Z,30.47
2018-05-02T12:46:30.125Z,30.56
2018-05-02T12:49:00.949Z,32.50
2018-05-02T12:51:31.733Z,32.67
2018-05-02T12:54:02.615Z,32.22
2018-05-02T12:56:33.368Z,32.35
2018-05-02T12:59:04.146Z,30.96
2018-05-02T13:01:34.947Z,30.36
2018-05-02T13:04:05.721Z,31.86
2018-05-02T13:06:36.513Z,31.89
2018-05-02T13:09:07.284Z,31.54
2018-05-02T13:11:38.128Z,31.49
2018-05-02T13:14:08.935Z,31.37
2018-05-02T13:16:39.728Z,30.72
2018-05-02T13:19:10.511Z,29.95
2018-05-02T13:21:41.287Z,30.49
2018-05-02T13:24:12.063Z,32.03
2018-05-02T13:26:42.873Z,32.31
2018-05-02T13:29:13.660Z,33.46
2018-05-02T13:31:44.460Z,31.98
2018-05-02T13:34:15.248Z,31.20
2018-05-02T13:36:46.031Z,31.38
2018-05-02T13:39:16.804Z,32.58
2018-05-02T13:41:47.610Z,31.71
2018-05-02T13:44:18.389Z,31.26
2018-05-02T13:46:49.176Z,31.10
2018-05-02T13:49:20.054Z,30.97
2018-05-02T13:51:50.772Z,31.09
2018-05-02T13:54:21.525Z,31.54
2018-05-02T13:56:52.316Z,33.01
2018-05-02T13:59:23.106Z,33.67
2018-05-02T14:01:54.078Z,34.53
2018-05-02T14:04:24.875Z,34.54
2018-05-02T14:06:55.699Z,35.50
2018-05-02T14:09:26.465Z,35.99
2018-05-02T14:11:57.275Z,34.61
2018-05-02T14:14:28.029Z,35.92
2018-05-02T14:17:06.528Z,34.69
2018-05-02T14:19:37.308Z,34.51
2018-05-02T14:22:08.093Z,35.32
2018-05-02T14:24:40.928Z,35.06
2018-05-02T14:27:11.643Z,33.59
2018-05-02T14:29:42.420Z,32.00
2018-05-02T14:32:13.200Z,31.48
2018-05-02T14:34:43.956Z,32.20
2018-05-02T14:37:14.769Z,33.30
2018-05-02T14:39:45.566Z,33.90
2018-05-02T14:42:16.359Z,34.21
2018-05-02T14:44:47.132Z,34.39
2018-05-02T14:47:17.931Z,36.60
2018-05-02T14:49:48.708Z,36.87
2018-05-02T14:52:19.488Z,37.93
2018-05-02T14:54:50.266Z,38.04
2018-05-02T14:57:21.067Z,39.20
2018-05-02T14:59:51.865Z,38.61
2018-05-02T15:02:22.792Z,38.04
2018-05-02T15:04:53.469Z,38.02
2018-05-02T15:07:24.269Z,39.62
2018-05-02T15:09:55.045Z,40.36
2018-05-02T15:12:25.855Z,39.85
2018-05-02T15:14:56.616Z,41.03
2018-05-02T15:17:28.077Z,39.72
2018-05-02T15:19:58.851Z,39.98
2018-05-02T15:22:29.627Z,41.74
2018-05-02T15:25:00.410Z,40.81
2018-05-02T15:27:31.204Z,40.97
2018-05-02T15:30:02.001Z,40.57
2018-05-02T15:32:32.829Z,39.44
2018-05-02T15:35:03.628Z,39.09
2018-05-02T15:37:34.424Z,37.62
2018-05-02T15:40:05.199Z,36.78
2018-05-02T15:42:36.030Z,36.58
2018-05-02T15:45:06.821Z,37.41
2018-05-02T15:47:37.639Z,37.89
2018-05-02T15:50:08.423Z,36.99
2018-05-02T15:52:39.242Z,37.50
2018-05-02T15:55:10.020Z,37.49
2018-05-02T15:57:40.904Z,37.65
2018-05-02T16:00:11.652Z,37.44
2018-05-02T16:02:42.454Z,38.47
2018-05-02T16:05:13.274Z,38.76
2018-05-02T16:07:44.097Z,37.43
2018-05-02T16:10:14.909Z,38.85
2018-05-02T16:12:45.695Z,39.23
2018-05-02T16:15:16.621Z,41.02
2018-05-02T16:17:47.443Z,41.10
2018-05-02T16:20:18.219Z,41.36
2018-05-02T16:22:48.994Z,41.86
2018-05-02T16:25:19.817Z,42.13
2018-05-02T16:27:50.670Z,42.29
2018-05-02T16:30:21.393Z,42.81
2018-05-02T16:32:52.179Z,43.43
2018-05-02T16:35:22.947Z,43.55
2018-05-02T16:37:53.737Z,43.22
2018-05-02T16:40:24.521Z,43.91
2018-05-02T16:42:55.435Z,43.81
2018-05-02T16:45:26.244Z,44.66
2018-05-02T16:47:57.036Z,44.67
2018-05-02T16:50:27.811Z,44.83
2018-05-02T16:52:58.617Z,45.50
2018-05-02T16:55:29.375Z,45.36
2018-05-02T16:58:00.203Z,45.41
2018-05-02T17:00:30.989Z,45.67
2018-05-02T17:03:01.775Z,45.98
2018-05-02T17:05:32.564Z,46.07
2018-05-02T17:08:03.345Z,46.59
2018-05-02T17:10:34.119Z,47.16
2018-05-02T17:13:04.927Z,47.56
2018-05-02T17:15:35.719Z,47.32
2018-05-02T17:18:06.517Z,47.50
2018-05-02T17:20:37.280Z,47.81
2018-05-02T17:23:08.066Z,48.04
2018-05-02T17:25:38.843Z,48.18
2018-05-02T17:28:09.656Z,48.83
2018-05-02T17:30:40.440Z,48.30
2018-05-02T17:33:11.240Z,49.13
2018-05-02T17:35:42.038Z,49.08
2018-05-02T17:38:12.840Z,49.63
2018-05-02T17:40:43.615Z,49.75
2018-05-02T17:43:14.399Z,49.46
2018-05-02T17:45:45.185Z,50.05
2018-05-02T17:48:15.972Z,50.48
2018-05-02T17:50:46.731Z,50.86
2018-05-02T17:53:17.521Z,51.31
2018-05-02T17:55:48.297Z,51.51
2018-05-02T17:58:19.091Z,51.36
2018-05-02T18:00:49.956Z,51.67
2018-05-02T18:03:20.777Z,51.90
2018-05-02T18:05:51.577Z,52.02
2018-05-02T18:08:22.396Z,52.23
2018-05-02T18:10:53.204Z,52.62
2018-05-02T18:13:24.019Z,52.61
2018-05-02T18:15:54.815Z,53.17
2018-05-02T18:18:25.631Z,53.87
2018-05-02T18:20:56.433Z,54.06
2018-05-02T18:23:27.239Z,54.18
2018-05-02T18:25:58.009Z,53.92
2018-05-02T18:28:28.817Z,54.22
2018-05-02T18:30:59.617Z,54.72
2018-05-02T18:33:30.475Z,54.38
2018-05-02T18:36:01.236Z,54.65
2018-05-02T18:38:32.054Z,54.51
2018-05-02T18:41:02.842Z,55.12
2018-05-02T18:43:33.640Z,54.84
2018-05-02T18:46:04.430Z,54.84
2018-05-02T18:48:35.248Z,55.08
2018-05-02T18:51:06.013Z,55.48
2018-05-02T18:53:36.839Z,55.61
2018-05-02T18:56:07.644Z,55.91
2018-05-02T18:58:38.508Z,56.00
2018-05-02T19:01:10.154Z,56.34
2018-05-02T19:03:41.007Z,56.66
2018-05-02T19:06:11.771Z,56.70
2018-05-02T19:08:42.564Z,56.87
2018-05-02T19:11:13.328Z,56.72
2018-05-02T19:13:50.292Z,56.84
2018-05-02T19:16:21.066Z,56.96
2018-05-02T19:18:58.113Z,56.88
2018-05-02T19:21:29.568Z,57.40
2018-05-02T19:24:00.444Z,57.39
2018-05-02T19:26:36.155Z,57.43
2018-05-02T19:29:06.936Z,58.04
2018-05-02T19:31:43.857Z,58.24
2018-05-02T19:34:14.624Z,58.52
2018-05-02T19:36:45.390Z,58.72
2018-05-02T19:39:16.195Z,58.81
2018-05-02T19:41:53.017Z,59.10
2018-05-02T19:44:23.854Z,58.63
2018-05-02T19:46:54.603Z,59.05
2018-05-02T19:49:25.516Z,59.20
2018-05-02T19:52:02.176Z,59.79
2018-05-02T19:54:32.979Z,59.90
2018-05-02T19:57:03.829Z,59.65
2018-05-02T19:59:34.688Z,59.49
2018-05-02T20:02:11.644Z,59.66
2018-05-02T20:04:42.587Z,59.34
2018-05-02T20:07:19.475Z,59.89
2018-05-02T20:09:56.492Z,59.63
2018-05-02T20:12:34.256Z,59.51
2018-05-02T20:15:04.999Z,59.92
2018-05-02T20:17:35.760Z,59.92
2018-05-02T20:20:06.537Z,60.13
2018-05-02T20:22:37.328Z,60.27
2018-05-02T20:25:08.109Z,60.59
2018-05-02T20:27:38.895Z,60.45
2018-05-02T20:30:09.728Z,60.65
2018-05-02T20:32:40.489Z,60.73
2018-05-02T20:35:11.258Z,60.58
2018-05-02T20:37:42.039Z,60.66
2018-05-02T20:40:12.828Z,60.93
2018-05-02T20:42:43.616Z,61.11
2018-05-02T20:45:14.401Z,61.15
2018-05-02T20:47:45.187Z,61.51
2018-05-02T20:50:15.959Z,61.36
2018-05-02T20:52:46.719Z,61.58
2018-05-02T20:55:17.592Z,62.03
2018-05-02T20:57:48.272Z,62.11
2018-05-02T21:00:19.064Z,62.30
2018-05-02T21:02:49.835Z,62.60
2018-05-02T21:05:20.616Z,62.74
2018-05-02T21:07:51.378Z,62.82
2018-05-02T21:10:22.163Z,63.43
2018-05-02T21:12:52.928Z,63.19
2018-05-02T21:15:23.711Z,63.59
2018-05-02T21:17:54.484Z,63.90
2018-05-02T21:20:25.295Z,64.07
2018-05-02T21:22:56.638Z,64.45
2018-05-02T21:25:27.430Z,64.95
2018-05-02T21:27:58.195Z,65.01
2018-05-02T21:30:28.979Z,65.16
2018-05-02T21:32:59.727Z,65.72
2018-05-02T21:35:30.544Z,65.87
2018-05-02T21:38:01.308Z,65.80
2018-05-02T21:40:32.076Z,66.14
2018-05-02T21:43:02.830Z,66.17
2018-05-02T21:45:33.635Z,66.41
2018-05-02T21:48:04.434Z,66.68
2018-05-02T21:50:35.297Z,66.88
2018-05-02T21:53:06.056Z,66.72
2018-05-02T21:55:36.843Z,66.87
2018-05-02T21:58:08.300Z,67.14
2018-05-02T22:00:39.087Z,67.52
2018-05-02T22:03:09.855Z,67.78
2018-05-02T22:05:40.639Z,67.74
2018-05-02T22:08:11.407Z,68.19
2018-05-02T22:10:42.209Z,68.42
2018-05-02T22:13:12.979Z,68.67
2018-05-02T22:15:43.760Z,69.01
2018-05-02T22:18:14.527Z,69.49
2018-05-02T22:20:45.307Z,69.42
2018-05-02T22:23:16.055Z,69.45
2018-05-02T22:25:48.911Z,69.91
2018-05-02T22:28:19.672Z,69.96
2018-05-02T22:30:50.444Z,70.31
2018-05-02T22:33:21.203Z,69.93
2018-05-02T22:35:51.988Z,70.34
2018-05-02T22:38:22.759Z,70.34
2018-05-02T22:40:53.547Z,70.09
2018-05-02T22:43:24.336Z,70.18
2018-05-02T22:45:55.151Z,70.32
2018-05-02T22:48:25.911Z,70.30
2018-05-02T22:50:56.775Z,70.57
2018-05-02T22:53:27.543Z,70.95
2018-05-02T22:55:58.326Z,71.42
2018-05-02T22:58:29.092Z,71.29
2018-05-02T23:00:59.875Z,71.42
2018-05-02T23:03:30.720Z,71.59
2018-05-02T23:06:01.526Z,71.54
2018-05-02T23:08:32.299Z,72.00
2018-05-02T23:11:03.080Z,72.05
2018-05-02T23:13:33.847Z,72.05
2018-05-02T23:16:04.663Z,72.34
2018-05-02T23:18:35.431Z,72.74
2018-05-02T23:21:06.225Z,72.89
2018-05-02T23:23:37.551Z,73.19
2018-05-02T23:26:08.335Z,73.30
2018-05-02T23:28:39.092Z,73.49
2018-05-02T23:31:09.852Z,74.06
2018-05-02T23:33:40.620Z,74.29
2018-05-02T23:36:11.405Z,73.93
2018-05-02T23:38:42.191Z,74.12
2018-05-02T23:41:12.995Z,73.94
2018-05-02T23:43:43.760Z,73.92
2018-05-02T23:46:14.585Z,73.60
2018-05-02T23:48:45.350Z,73.74
2018-05-02T23:51:16.128Z,73.53
2018-05-02T23:53:46.940Z,73.25
2018-05-02T23:56:17.779Z,72.73
2018-05-02T23:58:48.543Z,72.54
